createdAt,value
2023-04-22T00:01:42.547Z,100139.12
2023-04-22T00:03:48.315Z,100142.25
2023-04-22T00:05:54.020Z,100141.86
2023-04-22T00:07:59.160Z,100145.89
2023-04-22T00:10:04.225Z,100138.45
2023-04-22T00:12:09.274Z,100139.64
2023-04-22T00:14:14.351Z,100136.48
2023-04-22T00:16:19.531Z,100136.61
2023-04-22T00:18:24.732Z,100135.66
2023-04-22T00:20:29.852Z,100137.92
2023-04-22T00:22:34.915Z,100140.75
2023-04-22T00:24:40.000Z,100138.58
2023-04-22T00:26:45.062Z,100139.2
2023-04-22T00:28:50.133Z,100138.13
2023-04-22T00:30:55.288Z,100138.66
2023-04-22T00:33:00.487Z,100137.23
2023-04-22T00:35:05.617Z,100138.81
2023-04-22T00:37:10.684Z,100140.18
2023-04-22T00:39:15.801Z,100140.72
2023-04-22T00:41:20.849Z,100140.44
2023-04-22T00:43:25.855Z,100143.3
2023-04-22T00:45:30.900Z,100141.47
2023-04-22T00:47:36.092Z,100142.31
2023-04-22T00:49:41.789Z,100143.66
2023-04-22T00:51:46.942Z,100145.36
2023-04-22T00:53:51.961Z,100145.36
2023-04-22T00:55:56.981Z,100141.69
2023-04-22T00:58:02.146Z,100148.81
2023-04-22T01:00:07.415Z,100145.75
2023-04-22T01:02:12.707Z,100144.8
2023-04-22T01:04:18.146Z,100146.49
2023-04-22T01:06:23.434Z,100148.08
2023-04-22T01:08:28.490Z,100146.53
2023-04-22T01:10:33.676Z,100146.27
2023-04-22T01:12:38.757Z,100147.72
2023-04-22T01:14:43.836Z,100150.48
2023-04-22T01:16:48.992Z,100150.7
2023-04-22T01:18:54.337Z,100152.64
2023-04-22T01:20:59.393Z,100150.79
2023-04-22T01:23:04.458Z,100150.92
2023-04-22T01:25:09.494Z,100151.69
2023-04-22T01:27:14.644Z,100154.11
2023-04-22T01:29:19.726Z,100144.27
2023-04-22T01:31:24.968Z,100143.83
2023-04-22T01:33:30.097Z,100148.41
2023-04-22T01:35:35.160Z,100145.61
2023-04-22T01:37:40.244Z,100147.33
2023-04-22T01:40:05.164Z,100143.13
2023-04-22T01:42:10.190Z,100150
2023-04-22T01:44:15.356Z,100144.47
2023-04-22T01:46:20.511Z,100144.67
2023-04-22T01:48:25.726Z,100141.7
2023-04-22T01:50:30.777Z,100143.39
2023-04-22T01:52:35.819Z,100138.97
2023-04-22T01:54:40.859Z,100133.66
2023-04-22T01:56:45.900Z,100140
2023-04-22T01:58:50.895Z,100134.06
2023-04-22T02:00:56.004Z,100131.95
2023-04-22T02:03:01.482Z,100131.17
2023-04-22T02:05:06.926Z,100129.72
2023-04-22T02:07:12.140Z,100130.08
2023-04-22T02:09:17.221Z,100125.25
2023-04-22T02:11:22.385Z,100122.08
2023-04-22T02:13:27.425Z,100120.38
2023-04-22T02:15:32.598Z,100115.06
2023-04-22T02:17:37.689Z,100117.98
2023-04-22T02:19:43.287Z,100114.13
2023-04-22T02:21:48.530Z,100114.16
2023-04-22T02:23:53.700Z,100110.28
2023-04-22T02:25:58.760Z,100112.09
2023-04-22T02:28:03.855Z,100114.73
2023-04-22T02:30:08.961Z,100120.38
2023-04-22T02:32:13.962Z,100114.89
2023-04-22T02:34:18.977Z,100116.15
2023-04-22T02:36:24.110Z,100111.81
2023-04-22T02:38:29.212Z,100111.65
2023-04-22T02:40:34.345Z,100111.44
2023-04-22T02:42:39.370Z,100111.09
2023-04-22T02:44:44.354Z,100110.11
2023-04-22T02:46:49.716Z,100105.66
2023-04-22T02:48:54.813Z,100106.39
2023-04-22T02:50:59.853Z,100105.42
2023-04-22T02:53:04.893Z,100101.44
2023-04-22T02:55:09.929Z,100102.74
2023-04-22T02:57:14.983Z,100096.31
2023-04-22T02:59:20.030Z,100098.55
2023-04-22T03:01:25.430Z,100103.48
2023-04-22T03:03:30.936Z,100099.36
2023-04-22T03:05:36.336Z,100100.11
2023-04-22T03:07:41.370Z,100098.34
2023-04-22T03:09:46.351Z,100099.3
2023-04-22T03:11:51.462Z,100099.42
2023-04-22T03:13:56.474Z,100101.09
2023-04-22T03:16:01.733Z,100097.19
2023-04-22T03:18:07.006Z,100099.88
2023-04-22T03:20:12.220Z,100098.52
2023-04-22T03:22:17.271Z,100093.31
2023-04-22T03:24:22.389Z,100095.66
2023-04-22T03:26:27.446Z,100096.64
2023-04-22T03:28:32.455Z,100095.66
2023-04-22T03:30:37.552Z,100094.3
2023-04-22T03:32:42.693Z,100088.45
2023-04-22T03:34:47.790Z,100090.56
2023-04-22T03:36:52.837Z,100089.46
2023-04-22T03:38:57.937Z,100089.8
2023-04-22T03:41:03.092Z,100089.8
2023-04-22T03:43:08.115Z,100085.38
2023-04-22T03:45:13.159Z,100088.3
2023-04-22T03:47:18.806Z,100086.89
2023-04-22T03:49:24.706Z,100087.45
2023-04-22T03:51:29.864Z,100083.4
2023-04-22T03:53:34.910Z,100084.55
2023-04-22T03:55:39.957Z,100079.84
2023-04-22T03:57:44.977Z,100081.61
2023-04-22T03:59:50.019Z,100083.27
2023-04-22T04:01:55.120Z,100085.83
2023-04-22T04:04:01.109Z,100079.06
2023-04-22T04:06:06.905Z,100076.95
2023-04-22T04:08:11.967Z,100082.69
2023-04-22T04:10:16.990Z,100081.36
2023-04-22T04:12:21.984Z,100077.05
2023-04-22T04:14:27.010Z,100073.66
2023-04-22T04:16:32.098Z,100077.98
2023-04-22T04:18:37.283Z,100074.11
2023-04-22T04:20:42.453Z,100073.26
2023-04-22T04:22:47.582Z,100076.61
2023-04-22T04:24:52.600Z,100075.25
2023-04-22T04:26:57.612Z,100074.05
2023-04-22T04:29:02.678Z,100075.64
2023-04-22T04:31:07.907Z,100077.39
2023-04-22T04:33:13.274Z,100078.03
2023-04-22T04:35:18.439Z,100075.7
2023-04-22T04:37:23.517Z,100079.08
2023-04-22T04:39:28.618Z,100078.27
2023-04-22T04:41:33.668Z,100079.7
2023-04-22T04:43:38.705Z,100082.94
2023-04-22T04:45:44.928Z,100086.55
2023-04-22T04:47:52.889Z,100086.87
2023-04-22T04:49:58.024Z,100087.98
2023-04-22T04:52:03.217Z,100090.16
2023-04-22T04:54:08.267Z,100091.3
2023-04-22T04:56:13.339Z,100090.41
2023-04-22T04:58:18.424Z,100092.63
2023-04-22T05:00:23.447Z,100089.55
2023-04-22T05:02:28.774Z,100091.66
2023-04-22T05:04:34.586Z,100093.88
2023-04-22T05:06:39.856Z,100094.19
2023-04-22T05:08:44.896Z,100093.53
2023-04-22T05:10:49.960Z,100094.2
2023-04-22T05:12:55.029Z,100094.7
2023-04-22T05:15:00.134Z,100097.27
2023-04-22T05:17:05.245Z,100098.28
2023-04-22T05:19:10.307Z,100097.53
2023-04-22T05:21:15.423Z,100098.63
2023-04-22T05:23:20.496Z,100099.14
2023-04-22T05:25:25.673Z,100096.22
2023-04-22T05:27:30.741Z,100100.55
2023-04-22T05:29:35.774Z,100100.98
2023-04-22T05:31:41.003Z,100098.61
2023-04-22T05:33:46.325Z,100096.83
2023-04-22T05:35:51.437Z,100095.31
2023-04-22T05:37:56.545Z,100101.19
2023-04-22T05:40:01.812Z,100096.98
2023-04-22T05:42:06.845Z,100099.81
2023-04-22T05:44:11.936Z,100101.69
2023-04-22T05:46:17.175Z,100100.88
2023-04-22T05:48:22.239Z,100100.19
2023-04-22T05:50:27.332Z,100099.06
2023-04-22T05:52:32.385Z,100095.66
2023-04-22T05:54:37.587Z,100091.52
2023-04-22T05:56:42.779Z,100092.48
2023-04-22T05:58:47.854Z,100093.93
2023-04-22T06:00:52.935Z,100092.05
2023-04-22T06:02:58.345Z,100094.78
2023-04-22T06:05:04.434Z,100092.24
2023-04-22T06:07:10.503Z,100096.38
2023-04-22T06:09:15.618Z,100095.34
2023-04-22T06:11:20.693Z,100098.45
2023-04-22T06:13:25.756Z,100100.28
2023-04-22T06:15:30.919Z,100102.11
2023-04-22T06:17:36.155Z,100101.44
2023-04-22T06:19:41.985Z,100104.61
2023-04-22T06:21:47.265Z,100105.91
2023-04-22T06:23:52.350Z,100105.73
2023-04-22T06:25:57.421Z,100103.7
2023-04-22T06:28:02.558Z,100105.63
2023-04-22T06:30:07.631Z,100102.67
2023-04-22T06:32:12.804Z,100104.82
2023-04-22T06:34:17.817Z,100103.59
2023-04-22T06:36:22.925Z,100104.69
2023-04-22T06:38:27.977Z,100101.09
2023-04-22T06:40:33.067Z,100101.41
2023-04-22T06:42:38.140Z,100097.94
2023-04-22T06:44:43.230Z,100100.03
2023-04-22T06:46:48.485Z,100100.7
2023-04-22T06:48:53.659Z,100101.02
2023-04-22T06:50:58.746Z,100101.05
2023-04-22T06:53:03.782Z,100100.36
2023-04-22T06:55:08.858Z,100099.9
2023-04-22T06:57:13.908Z,100103.98
2023-04-22T06:59:19.006Z,100103.89
2023-04-22T07:01:24.170Z,100106.09
2023-04-22T07:03:29.832Z,100106.98
2023-04-22T07:05:35.679Z,100103.34
2023-04-22T07:07:43.531Z,100105.19
2023-04-22T07:09:48.657Z,100099.34
2023-04-22T07:11:53.906Z,100105.86
2023-04-22T07:13:58.971Z,100104.09
2023-04-22T07:16:04.090Z,100096.91
2023-04-22T07:18:09.260Z,100096.75
2023-04-22T07:20:14.279Z,100097.16
2023-04-22T07:22:19.351Z,100096.29
2023-04-22T07:24:24.395Z,100099.34
2023-04-22T07:26:29.553Z,100100.08
2023-04-22T07:28:34.579Z,100093.73
2023-04-22T07:30:39.628Z,100098.22
2023-04-22T07:32:45.450Z,100096.95
2023-04-22T07:34:52.787Z,100098.14
2023-04-22T07:36:57.862Z,100101.02
2023-04-22T07:39:02.932Z,100102.14
2023-04-22T07:41:08.151Z,100101.26
2023-04-22T07:43:13.177Z,100102.02
2023-04-22T07:45:18.217Z,100103.69
2023-04-22T07:47:23.366Z,100105.2
2023-04-22T07:49:28.545Z,100103.05
2023-04-22T07:51:33.707Z,100104.59
2023-04-22T07:53:38.757Z,100106.38
2023-04-22T07:55:43.805Z,100102.2
2023-04-22T07:57:48.887Z,100100.52
2023-04-22T07:59:53.939Z,100102.2
2023-04-22T08:01:59.180Z,100099.24
2023-04-22T08:04:04.779Z,100098.79
2023-04-22T08:06:10.386Z,100096.45
2023-04-22T08:08:15.413Z,100092.23
2023-04-22T08:10:20.503Z,100098.06
2023-04-22T08:12:25.600Z,100091.98
2023-04-22T08:14:30.745Z,100093.41
2023-04-22T08:16:35.731Z,100090.99
2023-04-22T08:18:40.781Z,100094.59
2023-04-22T08:20:45.786Z,100092.77
2023-04-22T08:22:50.836Z,100093.92
2023-04-22T08:24:55.871Z,100094.78
2023-04-22T08:27:01.063Z,100091.71
2023-04-22T08:29:06.143Z,100097.52
2023-04-22T08:31:11.257Z,100095.49
2023-04-22T08:33:16.376Z,100095.55
2023-04-22T08:35:21.426Z,100092.84
2023-04-22T08:37:26.490Z,100095.28
2023-04-22T08:39:31.534Z,100094.01
2023-04-22T08:41:36.581Z,100091
2023-04-22T08:43:41.638Z,100090.2
2023-04-22T08:45:46.695Z,100085.48
2023-04-22T08:47:51.893Z,100085.02
2023-04-22T08:49:57.032Z,100082.08
2023-04-22T08:52:02.097Z,100083.9
2023-04-22T08:54:07.185Z,100084.53
2023-04-22T08:56:12.274Z,100082.5
2023-04-22T08:58:17.310Z,100083.44
2023-04-22T09:00:22.386Z,100080.3
2023-04-22T09:02:27.513Z,100082.72
2023-04-22T09:04:32.913Z,100080.34
2023-04-22T09:06:38.061Z,100084.3
2023-04-22T09:08:43.273Z,100084.17
2023-04-22T09:10:48.298Z,100084.22
2023-04-22T09:12:53.321Z,100079.48
2023-04-22T09:14:58.344Z,100087.94
2023-04-22T09:17:03.375Z,100085.95
2023-04-22T09:19:08.429Z,100086.66
2023-04-22T09:21:13.424Z,100084.05
2023-04-22T09:23:18.479Z,100083.66
2023-04-22T09:25:23.503Z,100082.36
2023-04-22T09:27:28.535Z,100079.68
2023-04-22T09:29:33.551Z,100080.3
2023-04-22T09:31:38.690Z,100079.87
2023-04-22T09:33:43.828Z,100074.98
2023-04-22T09:35:48.916Z,100074.51
2023-04-22T09:37:54.037Z,100069.48
2023-04-22T09:39:59.109Z,100074.08
2023-04-22T09:42:04.117Z,100071.36
2023-04-22T09:44:09.183Z,100068.36
2023-04-22T09:46:14.290Z,100072.19
2023-04-22T09:48:19.399Z,100062.82
2023-04-22T09:50:24.468Z,100067.41
2023-04-22T09:52:29.543Z,100062.75
2023-04-22T09:54:34.643Z,100061.7
2023-04-22T09:56:39.825Z,100066.5
2023-04-22T09:58:44.854Z,100064.03
2023-04-22T10:00:50.034Z,100062.25
2023-04-22T10:02:55.415Z,100062.97
2023-04-22T10:05:00.704Z,100062.5
2023-04-22T10:07:05.891Z,100061.11
2023-04-22T10:09:11.030Z,100057.09
2023-04-22T10:11:16.367Z,100056.55
2023-04-22T10:13:21.406Z,100054.22
2023-04-22T10:15:28.274Z,100055.86
2023-04-22T10:17:33.459Z,100052.78
2023-04-22T10:19:39.098Z,100048.31
2023-04-22T10:21:44.632Z,100046.5
2023-04-22T10:23:49.920Z,100048.75
2023-04-22T10:25:55.310Z,100056.84
2023-04-22T10:28:00.332Z,100045.02
2023-04-22T10:30:05.326Z,100049.67
2023-04-22T10:32:12.110Z,100045.7
2023-04-22T10:34:17.129Z,100044.33
2023-04-22T10:36:22.274Z,100039.52
2023-04-22T10:38:27.290Z,100042.04
2023-04-22T10:40:32.343Z,100037.75
2023-04-22T10:42:37.480Z,100035.96
2023-04-22T10:44:42.532Z,100029.93
2023-04-22T10:46:47.745Z,100038.93
2023-04-22T10:48:52.841Z,100033.08
2023-04-22T10:50:57.934Z,100032.26
2023-04-22T10:53:03.006Z,100022.23
2023-04-22T10:55:08.093Z,100020.47
2023-04-22T10:57:13.162Z,100026.61
2023-04-22T10:59:18.414Z,100032.47
2023-04-22T11:01:23.593Z,100021.73
2023-04-22T11:03:30.040Z,100017.47
2023-04-22T11:05:35.634Z,100015.77
2023-04-22T11:07:40.815Z,100010.05
2023-04-22T11:09:45.900Z,100007.06
2023-04-22T11:11:51.006Z,100007.5
2023-04-22T11:13:56.078Z,100004.73
2023-04-22T11:16:01.233Z,100002.24
2023-04-22T11:18:06.319Z,99997.95
2023-04-22T11:20:11.386Z,100007.89
2023-04-22T11:22:16.463Z,100002.2
2023-04-22T11:24:21.596Z,100002.44
2023-04-22T11:26:26.679Z,100005.59
2023-04-22T11:28:31.827Z,99996.34
2023-04-22T11:30:36.901Z,99985.22
2023-04-22T11:32:41.931Z,99980.59
2023-04-22T11:34:47.061Z,99977.67
2023-04-22T11:36:52.109Z,99978.13
2023-04-22T11:38:57.191Z,99978.27
2023-04-22T11:41:02.303Z,99974.84
2023-04-22T11:43:07.334Z,99982.63
2023-04-22T11:45:12.300Z,99981.47
2023-04-22T11:47:17.279Z,99975.77
2023-04-22T11:49:22.321Z,99970.73
2023-04-22T11:51:27.349Z,99972.26
2023-04-22T11:53:32.323Z,99971.88
2023-04-22T11:55:37.363Z,99974.03
2023-04-22T11:57:42.380Z,99968.16
2023-04-22T11:59:47.389Z,99972.15
2023-04-22T12:01:52.550Z,99976.44
2023-04-22T12:03:57.889Z,99984.03
2023-04-22T12:06:03.064Z,99971.09
2023-04-22T12:08:08.283Z,99964.76
2023-04-22T12:10:13.417Z,99963.11
2023-04-22T12:12:18.491Z,99959.2
2023-04-22T12:14:23.474Z,99959.64
2023-04-22T12:16:28.664Z,99964.48
2023-04-22T12:18:33.757Z,99962.75
2023-04-22T12:20:38.766Z,99964.83
2023-04-22T12:22:43.812Z,99963.71
2023-04-22T12:24:48.810Z,99951.77
2023-04-22T12:26:53.899Z,99952.05
2023-04-22T12:28:59.039Z,99952.63
2023-04-22T12:31:04.019Z,99953.54
2023-04-22T12:33:09.160Z,99951.13
2023-04-22T12:35:14.138Z,99959.01
2023-04-22T12:37:19.150Z,99950.42
2023-04-22T12:39:24.301Z,99951.3
2023-04-22T12:41:29.330Z,99944.25
2023-04-22T12:43:34.328Z,99929.78
2023-04-22T12:45:39.363Z,99939.09
2023-04-22T12:47:44.422Z,99932.78
2023-04-22T12:49:49.537Z,99923.98
2023-04-22T12:51:54.557Z,99919.5
2023-04-22T12:53:59.535Z,99915.81
2023-04-22T12:56:04.519Z,99916.25
2023-04-22T12:58:09.499Z,99913.19
2023-04-22T13:00:14.566Z,99909.19
2023-04-22T13:02:19.810Z,99911.47
2023-04-22T13:04:25.032Z,99908.67
2023-04-22T13:06:30.368Z,99914.93
2023-04-22T13:08:35.369Z,99906.44
2023-04-22T13:10:40.405Z,99895.8
2023-04-22T13:12:45.431Z,99907.95
2023-04-22T13:14:50.523Z,99903.92
2023-04-22T13:16:55.510Z,99899.44
2023-04-22T13:19:00.537Z,99904.33
2023-04-22T13:21:05.579Z,99903.5
2023-04-22T13:23:10.595Z,99895.41
2023-04-22T13:25:15.790Z,99893.02
2023-04-22T13:27:20.812Z,99890.7
2023-04-22T13:29:25.821Z,99892.7
2023-04-22T13:31:31.009Z,99895.9
2023-04-22T13:33:36.093Z,99889.53
2023-04-22T13:35:41.237Z,99893.88
2023-04-22T13:37:46.360Z,99885.69
2023-04-22T13:39:51.497Z,99877.26
2023-04-22T13:41:56.635Z,99882.14
2023-04-22T13:44:01.607Z,99888.08
2023-04-22T13:46:06.736Z,99877.94
2023-04-22T13:48:11.990Z,99877.98
2023-04-22T13:50:17.000Z,99873.71
2023-04-22T13:52:22.136Z,99873.67
2023-04-22T13:54:27.233Z,99868.42
2023-04-22T13:56:32.228Z,99865.11
2023-04-22T13:58:37.350Z,99870.08
2023-04-22T14:00:42.549Z,99861.13
2023-04-22T14:02:47.946Z,99864.34
2023-04-22T14:04:53.389Z,99863.05
2023-04-22T14:06:58.372Z,99866.61
2023-04-22T14:09:03.482Z,99854.17
2023-04-22T14:11:08.479Z,99863.59
2023-04-22T14:13:13.478Z,99857.28
2023-04-22T14:15:18.489Z,99861.8
2023-04-22T14:17:23.512Z,99855.98
2023-04-22T14:19:28.571Z,99856.59
2023-04-22T14:21:33.610Z,99857.62
2023-04-22T14:23:38.612Z,99849.91
2023-04-22T14:25:43.680Z,99847.52
2023-04-22T14:27:48.662Z,99849.95
2023-04-22T14:29:53.699Z,99841.44
2023-04-22T14:31:58.744Z,99848.98
2023-04-22T14:34:03.734Z,99840.58
2023-04-22T14:36:08.790Z,99840.45
2023-04-22T14:38:13.903Z,99838.64
2023-04-22T14:40:18.956Z,99840.72
2023-04-22T14:42:23.965Z,99836.83
2023-04-22T14:44:29.067Z,99833.2
2023-04-22T14:46:34.233Z,99829.41
2023-04-22T14:48:39.366Z,99832.52
2023-04-22T14:50:44.436Z,99834.83
2023-04-22T14:52:49.471Z,99832.38
2023-04-22T14:54:54.472Z,99832.86
2023-04-22T14:56:59.436Z,99834.02
2023-04-22T14:59:04.430Z,99831.99
2023-04-22T15:01:09.808Z,99826.27
2023-04-22T15:03:15.304Z,99826.64
2023-04-22T15:05:20.634Z,99824.89
2023-04-22T15:07:25.792Z,99814.48
2023-04-22T15:09:30.783Z,99822.84
2023-04-22T15:11:35.927Z,99822.05
2023-04-22T15:13:41.069Z,99805.73
2023-04-22T15:15:46.217Z,99804.24
2023-04-22T15:17:51.577Z,99801.74
2023-04-22T15:19:56.779Z,99806.25
2023-04-22T15:22:01.938Z,99803.14
2023-04-22T15:24:07.052Z,99800.95
2023-04-22T15:26:12.146Z,99804.35
2023-04-22T15:28:17.202Z,99809.5
2023-04-22T15:30:22.221Z,99811.62
2023-04-22T15:32:27.328Z,99803.27
2023-04-22T15:34:32.357Z,99808.53
2023-04-22T15:36:37.361Z,99802.62
2023-04-22T15:38:42.449Z,99807.26
2023-04-22T15:40:47.465Z,99803.91
2023-04-22T15:42:52.507Z,99801.88
2023-04-22T15:44:57.434Z,99802.97
2023-04-22T15:47:02.525Z,99801.58
2023-04-22T15:49:07.798Z,99804.05
2023-04-22T15:51:12.900Z,99800.42
2023-04-22T15:53:17.924Z,99797.2
2023-04-22T15:55:22.946Z,99796.01
2023-04-22T15:57:27.986Z,99792.75
2023-04-22T15:59:33.158Z,99791.63
2023-04-22T16:01:39.681Z,99797.52
2023-04-22T16:03:47.269Z,99791.67
2023-04-22T16:05:52.857Z,99790.8
2023-04-22T16:07:57.870Z,99789.2
2023-04-22T16:10:03.072Z,99782.77
2023-04-22T16:12:08.192Z,99785.63
2023-04-22T16:14:13.191Z,99782.38
2023-04-22T16:16:18.374Z,99783.25
2023-04-22T16:18:23.531Z,99780.17
2023-04-22T16:20:28.608Z,99779.78
2023-04-22T16:22:33.693Z,99778.66
2023-04-22T16:24:38.685Z,99774.98
2023-04-22T16:26:47.392Z,99773.27
2023-04-22T16:28:52.515Z,99774.32
2023-04-22T16:30:57.656Z,99769.34
2023-04-22T16:33:03.452Z,99767.99
2023-04-22T16:35:08.539Z,99768.25
2023-04-22T16:37:13.576Z,99768.81
2023-04-22T16:39:18.608Z,99758.63
2023-04-22T16:41:23.694Z,99762.84
2023-04-22T16:43:28.795Z,99760.33
2023-04-22T16:45:33.944Z,99761.73
2023-04-22T16:47:39.246Z,99760.49
2023-04-22T16:49:44.872Z,99759.98
2023-04-22T16:51:49.953Z,99759.67
2023-04-22T16:53:55.135Z,99754.88
2023-04-22T16:56:00.194Z,99751.98
2023-04-22T16:58:05.271Z,99750.08
2023-04-22T17:00:10.341Z,99754.13
2023-04-22T17:02:15.477Z,99754.46
2023-04-22T17:04:21.073Z,99760.16
2023-04-22T17:06:26.228Z,99747.98
2023-04-22T17:08:31.282Z,99753.69
2023-04-22T17:10:36.272Z,99748.48
2023-04-22T17:12:41.243Z,99747.4
2023-04-22T17:14:46.243Z,99750.02
2023-04-22T17:16:51.195Z,99742.05
2023-04-22T17:18:56.157Z,99740.7
2023-04-22T17:21:01.153Z,99740.08
2023-04-22T17:23:06.164Z,99742.8
2023-04-22T17:25:11.207Z,99744.25
2023-04-22T17:27:16.347Z,99744.7
2023-04-22T17:29:21.479Z,99743.66
2023-04-22T17:31:26.659Z,99744.28
2023-04-22T17:33:31.820Z,99740.92
2023-04-22T17:35:36.857Z,99742.53
2023-04-22T17:37:41.916Z,99738.27
2023-04-22T17:39:47.172Z,99742.1
2023-04-22T17:41:52.280Z,99740.05
2023-04-22T17:43:59.782Z,99737.98
2023-04-22T17:46:05.363Z,99741.21
2023-04-22T17:48:10.347Z,99739.59
2023-04-22T17:50:15.346Z,99741.37
2023-04-22T17:52:20.354Z,99739.45
2023-04-22T17:54:25.416Z,99742.39
2023-04-22T17:56:30.581Z,99744.23
2023-04-22T17:58:35.564Z,99747.91
2023-04-22T18:00:40.619Z,99744.38
2023-04-22T18:02:45.940Z,99750.19
2023-04-22T18:04:51.293Z,99750.35
2023-04-22T18:06:56.328Z,99747.53
2023-04-22T18:09:01.332Z,99749.12
2023-04-22T18:11:06.372Z,99747.27
2023-04-22T18:13:11.426Z,99745.47
2023-04-22T18:15:16.475Z,99747.19
2023-04-22T18:17:21.532Z,99749.16
2023-04-22T18:19:26.690Z,99748.05
2023-04-22T18:21:31.720Z,99752.29
2023-04-22T18:23:36.809Z,99756.23
2023-04-22T18:25:41.831Z,99756.38
2023-04-22T18:27:46.931Z,99761.99
2023-04-22T18:29:51.955Z,99766.66
2023-04-22T18:31:57.075Z,99764.89
2023-04-22T18:34:02.246Z,99767.63
2023-04-22T18:36:07.405Z,99769.39
2023-04-22T18:38:12.444Z,99769.17
2023-04-22T18:40:17.483Z,99768.31
2023-04-22T18:42:22.484Z,99768.68
2023-04-22T18:44:27.505Z,99766.53
2023-04-22T18:46:32.628Z,99765.17
2023-04-22T18:48:37.631Z,99763.69
2023-04-22T18:50:42.617Z,99763.23
2023-04-22T18:52:47.778Z,99761.41
2023-04-22T18:54:52.946Z,99761.27
2023-04-22T18:56:57.931Z,99761.45
2023-04-22T18:59:02.983Z,99762.2
2023-04-22T19:01:08.079Z,99763.19
2023-04-22T19:03:13.295Z,99767.34
2023-04-22T19:05:18.696Z,99765.76
2023-04-22T19:07:23.704Z,99763.05
2023-04-22T19:09:28.746Z,99765.23
2023-04-22T19:11:33.858Z,99766.34
2023-04-22T19:13:38.872Z,99763.23
2023-04-22T19:15:44.138Z,99763.23
2023-04-22T19:17:49.332Z,99759.11
2023-04-22T19:19:54.446Z,99759
2023-04-22T19:21:59.502Z,99761.33
2023-04-22T19:24:04.587Z,99763.44
2023-04-22T19:26:09.579Z,99764.64
2023-04-22T19:28:14.596Z,99762.87
2023-04-22T19:30:19.685Z,99760.84
2023-04-22T19:32:24.757Z,99762.78
2023-04-22T19:34:29.885Z,99756.94
2023-04-22T19:36:34.849Z,99758.53
2023-04-22T19:38:39.920Z,99758.83
2023-04-22T19:40:44.940Z,99755.66
2023-04-22T19:42:49.972Z,99759
2023-04-22T19:44:55.000Z,99756.12
2023-04-22T19:47:00.297Z,99752.43
2023-04-22T19:49:05.424Z,99752.73
2023-04-22T19:51:10.443Z,99749.31
2023-04-22T19:53:15.506Z,99751.64
2023-04-22T19:55:20.469Z,99749.15
2023-04-22T19:57:25.448Z,99749.42
2023-04-22T19:59:30.443Z,99745.94
2023-04-22T20:01:35.715Z,99745.11
2023-04-22T20:03:41.310Z,99746.48
2023-04-22T20:05:46.724Z,99747.91
2023-04-22T20:07:51.859Z,99748.44
2023-04-22T20:09:56.875Z,99742.48
2023-04-22T20:12:01.955Z,99743.7
2023-04-22T20:14:07.010Z,99742.85
2023-04-22T20:16:12.139Z,99739.47
2023-04-22T20:18:17.436Z,99744.84
2023-04-22T20:20:22.414Z,99744.51
2023-04-22T20:22:27.507Z,99744.19
2023-04-22T20:24:32.539Z,99741.39
2023-04-22T20:26:37.548Z,99744.23
2023-04-22T20:28:42.542Z,99746.72
2023-04-22T20:30:47.554Z,99742.84
2023-04-22T20:32:52.681Z,99745.59
2023-04-22T20:34:57.857Z,99745.17
2023-04-22T20:37:02.858Z,99745.66
2023-04-22T20:39:07.899Z,99743.39
2023-04-22T20:41:12.894Z,99746.25
2023-04-22T20:43:17.964Z,99742.98
2023-04-22T20:45:22.968Z,99742.36
2023-04-22T20:47:27.981Z,99743.97
2023-04-22T20:49:33.007Z,99746.73
2023-04-22T20:51:37.990Z,99743.11
2023-04-22T20:53:43.000Z,99743.95
2023-04-22T20:55:48.156Z,99738.05
2023-04-22T20:57:53.130Z,99739.38
2023-04-22T20:59:58.138Z,99739.25
2023-04-22T21:02:03.294Z,99736.37
2023-04-22T21:04:08.616Z,99735.23
2023-04-22T21:06:14.248Z,99732.94
2023-04-22T21:08:19.288Z,99738
2023-04-22T21:10:24.300Z,99734.48
2023-04-22T21:12:29.375Z,99733.67
2023-04-22T21:14:34.335Z,99740.89
2023-04-22T21:16:39.461Z,99734.31
2023-04-22T21:18:44.668Z,99735.97
2023-04-22T21:20:49.700Z,99736.17
2023-04-22T21:22:54.699Z,99733.47
2023-04-22T21:24:59.857Z,99733.48
2023-04-22T21:27:04.871Z,99735.07
2023-04-22T21:29:09.967Z,99735.3
2023-04-22T21:31:15.091Z,99735.88
2023-04-22T21:33:20.314Z,99734.26
2023-04-22T21:35:25.453Z,99732.67
2023-04-22T21:37:30.625Z,99732.46
2023-04-22T21:39:35.624Z,99734.88
2023-04-22T21:41:40.853Z,99733.43
2023-04-22T21:43:45.848Z,99728.92
2023-04-22T21:45:50.810Z,99729.87
2023-04-22T21:47:56.000Z,99727.77
2023-04-22T21:50:01.057Z,99728.68
2023-04-22T21:52:06.173Z,99727.15
2023-04-22T21:54:11.230Z,99725.63
2023-04-22T21:56:16.359Z,99726.67
2023-04-22T21:58:21.392Z,99725.3
2023-04-22T22:00:26.484Z,99723.77
2023-04-22T22:02:31.631Z,99727.27
2023-04-22T22:04:37.043Z,99724.81
2023-04-22T22:06:42.329Z,99727.55
2023-04-22T22:08:47.379Z,99730.04
2023-04-22T22:10:52.362Z,99722.84
2023-04-22T22:12:57.535Z,99725.63
2023-04-22T22:15:02.530Z,99724.95
2023-04-22T22:17:07.535Z,99722.63
2023-04-22T22:19:12.582Z,99725.3
2023-04-22T22:21:17.601Z,99725.42
2023-04-22T22:23:22.604Z,99720.49
2023-04-22T22:25:27.746Z,99722.4
2023-04-22T22:27:32.720Z,99725.36
2023-04-22T22:29:37.718Z,99723.17
2023-04-22T22:31:42.808Z,99719.97
2023-04-22T22:33:48.036Z,99728.8
2023-04-22T22:35:53.018Z,99723.91
2023-04-22T22:37:58.045Z,99724.45
2023-04-22T22:40:03.049Z,99723.44
2023-04-22T22:42:08.064Z,99725.73
2023-04-22T22:44:13.163Z,99724.38
2023-04-22T22:46:18.325Z,99721.97
2023-04-22T22:48:23.510Z,99719.86
2023-04-22T22:50:28.498Z,99723.09
2023-04-22T22:52:33.625Z,99721.81
2023-04-22T22:54:38.975Z,99725.18
2023-04-22T22:56:44.775Z,99728.16
2023-04-22T22:58:49.750Z,99725.87
2023-04-22T23:00:54.843Z,99726.16
2023-04-22T23:03:00.565Z,99723.39
2023-04-22T23:05:05.932Z,99722.55
2023-04-22T23:07:11.861Z,99721.67
2023-04-22T23:09:16.913Z,99716.94
2023-04-22T23:11:21.930Z,99714.55
2023-04-22T23:13:26.946Z,99715.02
2023-04-22T23:15:31.931Z,99712.23
2023-04-22T23:17:37.046Z,99708.87
2023-04-22T23:19:42.259Z,99710.85
2023-04-22T23:21:47.397Z,99706.5
2023-04-22T23:23:52.438Z,99706.78
2023-04-22T23:25:57.443Z,99709.09
2023-04-22T23:28:02.658Z,99705.94
2023-04-22T23:30:07.761Z,99705.48
2023-04-22T23:32:12.963Z,99703.2
2023-04-22T23:34:18.198Z,99702.98
2023-04-22T23:36:23.167Z,99701.55
2023-04-22T23:38:28.160Z,99701.81
2023-04-22T23:40:33.180Z,99702.84
2023-04-22T23:42:38.219Z,99698.87
2023-04-22T23:44:43.712Z,99703.94
2023-04-22T23:46:48.940Z,99695.28
2023-04-22T23:48:54.098Z,99698.51
2023-04-22T23:50:59.147Z,99694.26
2023-04-22T23:53:04.133Z,99699.27
2023-04-22T23:55:09.618Z,99694.07
2023-04-22T23:57:14.669Z,99694.42
2023-04-22T23:59:19.694Z,99692.1
